Time;durP1;ratioP1;P1;durP2;ratioP2;P2;SDS_P1;SDS_P2;PMS_P1;PMS_P2;Temp;Humidity;BMP_temperature;BMP_pressure;BME280_temperature;BME280_humidity;BME280_pressure;Samples;Min_cycle;Max_cycle;Signal;HPM_P1;HPM_P2
2021/07/19 00:01:37;;;;;;;13.77;8.55;;;;;;;19.91;48.65;101561.22;6155896;23;20028;-79
2021/07/19 00:04:02;;;;;;;17.23;8.85;;;;;;;19.96;48.59;101570.59;6155814;23;20011;-80
2021/07/19 00:06:28;;;;;;;14.02;8.02;;;;;;;19.83;49.14;101574.88;6181840;23;20108;-80
2021/07/19 00:08:53;;;;;;;19.63;10.25;;;;;;;19.80;48.88;101578.81;6182598;23;20646;-80
2021/07/19 00:11:19;;;;;;;17.15;8.55;;;;;;;19.76;48.74;101579.38;6182168;23;20045;-80
2021/07/19 00:13:44;;;;;;;13.30;8.30;;;;;;;19.88;48.68;101569.75;6182049;23;20020;-80
2021/07/19 00:16:10;;;;;;;12.18;7.68;;;;;;;20.01;48.20;101589.16;6182170;23;20096;-80
2021/07/19 00:18:36;;;;;;;11.77;6.68;;;;;;;20.14;48.16;101583.13;6182495;23;20016;-80
2021/07/19 00:21:02;;;;;;;16.30;7.93;;;;;;;20.20;48.10;101580.53;6155654;23;20036;-80
2021/07/19 00:23:27;;;;;;;13.05;7.78;;;;;;;20.20;48.04;101588.75;6182265;23;20004;-80
2021/07/19 00:25:53;;;;;;;13.43;7.65;;;;;;;20.28;48.04;101584.25;6155333;23;20055;-80
2021/07/19 00:28:19;;;;;;;19.08;9.05;;;;;;;20.07;48.63;101585.72;6182306;23;20009;-81
2021/07/19 00:30:45;;;;;;;15.05;8.68;;;;;;;19.95;48.65;101587.13;6182070;23;20015;-80
2021/07/19 00:33:10;;;;;;;19.08;8.88;;;;;;;20.13;48.44;101582.28;6182302;23;20131;-80
2021/07/19 00:35:37;;;;;;;23.10;8.20;;;;;;;20.00;48.70;101584.72;6155263;23;20032;-80
2021/07/19 00:38:02;;;;;;;11.88;7.78;;;;;;;20.13;48.64;101589.63;6181837;23;20009;-80
2021/07/19 00:40:31;;;;;;;12.75;8.25;;;;;;;20.08;48.69;101592.91;6182034;23;20005;-80
2021/07/19 00:42:58;;;;;;;14.30;8.27;;;;;;;20.04;48.57;101602.44;6182026;23;20005;-80
2021/07/19 00:45:26;;;;;;;12.45;7.85;;;;;;;19.96;48.86;101588.84;6182510;23;20005;-80
2021/07/19 00:47:54;;;;;;;10.02;7.30;;;;;;;19.90;49.32;101592.28;6182160;23;20009;-80
2021/07/19 00:50:21;;;;;;;12.88;7.75;;;;;;;19.81;49.78;101596.06;6183346;23;20019;-80
2021/07/19 00:52:48;;;;;;;12.35;7.57;;;;;;;19.79;49.50;101604.41;6184553;23;20337;-80
2021/07/19 00:55:16;;;;;;;13.57;7.60;;;;;;;19.85;49.70;101605.59;6156840;23;20071;-80
2021/07/19 00:57:48;;;;;;;15.85;8.02;;;;;;;19.69;50.16;101606.50;6184098;23;20426;-80
2021/07/19 01:00:14;;;;;;;12.65;7.43;;;;;;;19.95;49.62;101604.34;6183869;23;20005;-80
2021/07/19 01:02:44;;;;;;;14.98;8.13;;;;;;;19.85;50.03;101595.53;6183949;23;20004;-80
2021/07/19 01:05:10;;;;;;;11.75;6.97;;;;;;;19.84;49.96;101595.72;6157348;23;20013;-80
2021/07/19 01:07:38;;;;;;;14.77;7.10;;;;;;;19.89;49.88;101591.41;6183605;23;20009;-80
2021/07/19 01:10:13;;;;;;;15.38;6.70;;;;;;;19.77;50.06;101586.50;6184107;23;20513;-80
2021/07/19 01:12:41;;;;;;;10.15;6.70;;;;;;;19.76;49.83;101582.09;6183937;23;20745;-80
2021/07/19 01:15:07;;;;;;;11.88;6.97;;;;;;;19.81;49.68;101585.16;6184348;23;20009;-79
2021/07/19 01:17:33;;;;;;;12.27;6.85;;;;;;;19.82;49.67;101579.50;6184318;23;20013;-79
2021/07/19 01:19:58;;;;;;;13.68;6.78;;;;;;;19.69;49.76;101580.06;6157325;23;20035;-80
2021/07/19 01:22:36;;;;;;;14.48;6.80;;;;;;;19.77;49.55;101581.06;6184063;23;20008;-80
2021/07/19 01:25:25;;;;;;;11.02;6.38;;;;;;;19.63;50.01;101577.16;6184070;23;20005;-80
2021/07/19 01:28:09;;;;;;;13.77;6.53;;;;;;;19.63;50.00;101580.72;6157330;23;20019;-80
2021/07/19 01:30:40;;;;;;;12.20;6.88;;;;;;;19.70;50.01;101581.75;6184020;23;20088;-80
2021/07/19 01:33:07;;;;;;;11.75;5.93;;;;;;;19.70;49.74;101579.03;6184325;23;20039;-80
2021/07/19 01:35:36;;;;;;;12.63;6.43;;;;;;;19.72;49.77;101579.72;6183871;23;20762;-80
2021/07/19 01:38:02;;;;;;;10.32;6.80;;;;;;;19.62;49.99;101586.34;6183730;23;20012;-80
2021/07/19 01:40:29;;;;;;;11.60;6.35;;;;;;;19.55;50.15;101574.44;6183993;23;20059;-80
2021/07/19 01:42:56;;;;;;;14.55;6.93;;;;;;;19.58;49.96;101576.81;6183625;23;20012;-80
2021/07/19 01:45:22;;;;;;;13.77;5.78;;;;;;;19.62;49.43;101575.44;6183744;23;20079;-80
2021/07/19 01:47:49;;;;;;;9.45;6.35;;;;;;;19.65;49.92;101584.19;6157229;23;20698;-80
2021/07/19 01:50:15;;;;;;;11.18;5.68;;;;;;;19.69;49.63;101577.34;6184000;23;20008;-80
2021/07/19 01:52:42;;;;;;;8.98;6.22;;;;;;;19.67;49.71;101573.06;6183781;23;20009;-79
2021/07/19 01:55:08;;;;;;;14.32;7.20;;;;;;;19.73;49.61;101572.38;6183313;23;20096;-80
2021/07/19 01:57:34;;;;;;;11.82;5.32;;;;;;;19.80;49.43;101572.50;6183420;23;20019;-80
2021/07/19 02:00:00;;;;;;;11.20;5.55;;;;;;;19.64;49.63;101571.53;6183253;23;20630;-80
2021/07/19 02:02:26;;;;;;;16.77;6.35;;;;;;;19.75;49.34;101570.31;6183073;23;20105;-80
2021/07/19 02:04:52;;;;;;;15.13;5.38;;;;;;;19.79;49.34;101570.81;6183807;23;20020;-80
2021/07/19 02:07:23;;;;;;;8.80;5.50;;;;;;;19.84;49.06;101569.28;6183649;23;20012;-80
2021/07/19 02:09:51;;;;;;;10.93;4.85;;;;;;;19.87;49.23;101562.63;6183305;23;20067;-80
2021/07/19 02:12:16;;;;;;;12.25;5.97;;;;;;;19.50;49.55;101570.38;6156438;23;20005;-79
2021/07/19 02:14:44;;;;;;;14.00;5.85;;;;;;;19.55;49.74;101575.28;6183437;23;20017;-79
2021/07/19 02:17:12;;;;;;;10.73;5.13;;;;;;;19.61;49.56;101562.81;6156774;23;20129;-80
2021/07/19 02:19:39;;;;;;;10.50;5.55;;;;;;;19.59;49.68;101563.00;6156729;23;20004;-80
2021/07/19 02:22:06;;;;;;;10.60;5.43;;;;;;;19.61;49.40;101566.41;6183525;23;20008;-80
2021/07/19 02:24:33;;;;;;;9.30;6.00;;;;;;;19.46;49.87;101563.53;6183489;23;20025;-79
2021/07/19 02:27:00;;;;;;;11.13;5.65;;;;;;;19.52;49.74;101556.53;6183272;23;20005;-79
2021/07/19 02:29:26;;;;;;;14.07;5.88;;;;;;;19.33;50.23;101555.03;6156145;23;20012;-79
2021/07/19 02:31:52;;;;;;;12.48;5.47;;;;;;;19.48;50.03;101564.22;6182836;23;20441;-80
2021/07/19 02:34:19;;;;;;;16.70;6.30;;;;;;;19.56;49.80;101557.91;6183113;23;20001;-79
2021/07/19 02:36:46;;;;;;;16.33;6.47;;;;;;;19.47;49.79;101567.97;6156377;23;20071;-80
2021/07/19 02:39:12;;;;;;;12.32;5.38;;;;;;;19.64;49.61;101568.81;6183053;23;20009;-79
2021/07/19 02:41:38;;;;;;;9.55;5.80;;;;;;;19.66;49.62;101566.78;6156149;23;20032;-80
2021/07/19 02:44:05;;;;;;;12.05;5.25;;;;;;;19.71;49.49;101563.50;6183319;23;20012;-80
2021/07/19 02:46:33;;;;;;;12.57;6.40;;;;;;;19.37;50.26;101558.28;6157005;23;20001;-80
2021/07/19 02:48:59;;;;;;;16.10;5.40;;;;;;;19.44;50.33;101556.56;6183151;23;20024;-80
2021/07/19 02:51:27;;;;;;;11.55;5.88;;;;;;;19.54;50.19;101565.41;6183529;23;20063;-79
2021/07/19 02:53:55;;;;;;;12.23;5.80;;;;;;;19.73;49.56;101566.91;6156272;23;20804;-80
2021/07/19 02:56:21;;;;;;;11.52;6.18;;;;;;;19.37;50.55;101552.81;6182884;23;20005;-80
2021/07/19 02:58:47;;;;;;;10.73;5.85;;;;;;;19.31;50.67;101548.06;6155717;23;20008;-79
2021/07/19 03:01:17;;;;;;;12.95;6.07;;;;;;;19.42;50.70;101556.72;6182451;23;20009;-80
2021/07/19 03:03:45;;;;;;;15.18;6.55;;;;;;;19.32;50.50;101557.97;6183613;23;20369;-80
2021/07/19 03:06:18;;;;;;;13.68;6.25;;;;;;;19.45;50.50;101558.25;6182693;23;20027;-80
2021/07/19 03:08:45;;;;;;;11.52;6.10;;;;;;;19.39;50.52;101548.91;6182823;23;20505;-80
2021/07/19 03:11:38;;;;;;;10.30;5.75;;;;;;;19.19;51.05;101555.75;6183301;23;20012;-79
2021/07/19 03:14:08;;;;;;;12.02;6.93;;;;;;;19.30;51.09;101549.94;6168273;23;20441;-80
2021/07/19 03:16:35;;;;;;;13.20;5.90;;;;;;;19.44;50.73;101556.56;6155713;23;20389;-80
2021/07/19 03:19:03;;;;;;;10.23;6.35;;;;;;;19.56;50.39;101557.91;6156539;23;20068;-79
2021/07/19 03:21:32;;;;;;;15.23;6.50;;;;;;;19.50;50.50;101551.25;6182375;23;20063;-79
2021/07/19 03:23:59;;;;;;;11.05;6.65;;;;;;;19.35;50.89;101560.34;6155674;23;20048;-80
2021/07/19 03:26:26;;;;;;;16.60;6.85;;;;;;;19.55;50.55;101553.47;6182333;23;20005;-80
2021/07/19 03:28:55;;;;;;;13.95;6.47;;;;;;;19.44;50.56;101562.03;6181982;23;20031;-80
2021/07/19 03:31:21;;;;;;;14.88;7.30;;;;;;;19.28;50.95;101557.44;6155730;23;20468;-79
2021/07/19 03:33:49;;;;;;;22.88;7.15;;;;;;;19.21;51.33;101561.88;6182410;23;20015;-79
2021/07/19 03:36:16;;;;;;;10.05;6.63;;;;;;;18.87;52.11;101557.47;6155455;23;20464;-80
2021/07/19 03:38:43;;;;;;;10.90;6.25;;;;;;;19.06;52.21;101559.00;6182264;23;20088;-80
2021/07/19 03:41:11;;;;;;;11.05;7.18;;;;;;;19.12;52.27;101561.03;6182108;23;20019;-80
2021/07/19 03:43:36;;;;;;;12.93;6.32;;;;;;;18.99;52.81;101552.53;6182062;23;20020;-79
2021/07/19 03:46:02;;;;;;;13.65;6.82;;;;;;;19.18;52.46;101552.16;6181814;23;20408;-80
2021/07/19 03:48:28;;;;;;;13.02;7.03;;;;;;;19.10;52.28;101563.09;6182543;23;20086;-80
2021/07/19 03:50:54;;;;;;;13.23;6.47;;;;;;;19.12;52.17;101563.75;6182173;23;20083;-80
2021/07/19 03:53:20;;;;;;;14.40;6.35;;;;;;;19.20;52.17;101557.47;6182301;23;20009;-80
2021/07/19 03:55:48;;;;;;;10.82;6.57;;;;;;;19.40;51.62;101572.41;6182293;23;20015;-79
2021/07/19 03:58:15;;;;;;;13.50;6.35;;;;;;;19.34;51.96;101569.53;6181891;23;20005;-80
2021/07/19 04:00:41;;;;;;;14.35;7.25;;;;;;;19.36;52.07;101562.03;6155573;23;20496;-80
2021/07/19 04:03:24;;;;;;;11.30;6.55;;;;;;;19.55;51.72;101566.25;6155377;23;20008;-79
2021/07/19 04:05:57;;;;;;;12.25;5.88;;;;;;;19.61;51.58;101560.94;6182457;23;20331;-80
2021/07/19 04:08:25;;;;;;;10.85;6.28;;;;;;;19.59;51.47;101568.47;6181900;23;20479;-79
2021/07/19 04:10:51;;;;;;;12.20;7.10;;;;;;;19.57;51.77;101556.88;6182334;23;20009;-80
2021/07/19 04:13:17;;;;;;;15.93;6.95;;;;;;;19.59;51.99;101570.31;6182026;23;20011;-80
2021/07/19 04:15:49;;;;;;;10.20;5.90;;;;;;;19.37;52.15;101567.31;6181690;23;20013;-81
2021/07/19 04:18:15;;;;;;;12.90;6.47;;;;;;;19.48;52.01;101563.38;6182034;23;20005;-80
2021/07/19 04:20:41;;;;;;;12.82;5.28;;;;;;;19.42;51.92;101570.38;6182347;23;20016;-80
2021/07/19 04:23:11;;;;;;;12.80;5.75;;;;;;;19.32;52.17;101557.97;6181932;23;20023;-80
2021/07/19 04:25:38;;;;;;;12.15;5.70;;;;;;;19.47;51.86;101567.97;6181589;23;20036;-79
2021/07/19 04:28:05;;;;;;;13.90;6.20;;;;;;;19.57;52.11;101562.31;6182706;23;20004;-79
2021/07/19 04:30:33;;;;;;;9.75;5.18;;;;;;;19.70;50.94;101568.09;6182265;23;20092;-80
2021/07/19 04:32:58;;;;;;;14.63;5.68;;;;;;;19.64;51.50;101568.81;6155463;23;20346;-80
2021/07/19 04:35:24;;;;;;;14.65;4.80;;;;;;;19.69;51.38;101574.59;6182115;23;20005;-80
2021/07/19 04:37:50;;;;;;;15.43;5.00;;;;;;;19.72;51.43;101574.25;6181896;23;20011;-80
2021/07/19 04:40:16;;;;;;;10.93;4.80;;;;;;;19.61;51.91;101573.75;6182231;23;20005;-80
2021/07/19 04:42:43;;;;;;;15.98;6.13;;;;;;;19.56;52.07;101576.13;6182558;23;20006;-80
2021/07/19 04:45:09;;;;;;;12.65;5.20;;;;;;;19.70;51.53;101579.03;6181846;23;20005;-79
2021/07/19 04:47:34;;;;;;;10.50;5.25;;;;;;;19.64;51.96;101573.38;6182007;23;20318;-80
2021/07/19 04:50:00;;;;;;;16.60;5.35;;;;;;;19.57;52.01;101570.50;6182159;23;20015;-80
2021/07/19 04:52:25;;;;;;;13.23;5.10;;;;;;;19.79;51.61;101576.28;6182255;23;20004;-80
2021/07/19 04:54:53;;;;;;;9.95;4.78;;;;;;;19.63;51.62;101577.16;6182006;23;20583;-80
2021/07/19 04:57:20;;;;;;;10.25;5.07;;;;;;;19.74;51.75;101576.78;6182104;23;20349;-80
2021/07/19 04:59:49;;;;;;;11.93;4.47;;;;;;;19.93;51.50;101575.56;6181316;23;20015;-80
2021/07/19 05:02:21;;;;;;;13.38;4.88;;;;;;;19.72;51.75;101587.06;6182141;23;20027;-80
2021/07/19 05:04:50;;;;;;;12.05;5.20;;;;;;;19.53;52.24;101580.09;6181805;23;20036;-80
2021/07/19 05:07:18;;;;;;;11.50;4.85;;;;;;;19.51;52.02;101585.69;6155169;23;20088;-80
2021/07/19 05:09:46;;;;;;;11.38;4.82;;;;;;;19.51;52.44;101584.84;6181834;23;20437;-80
2021/07/19 05:12:15;;;;;;;8.95;4.90;;;;;;;19.51;52.70;101590.31;6155320;23;20063;-80
2021/07/19 05:14:41;;;;;;;11.07;4.82;;;;;;;19.45;52.13;101591.00;6182149;23;20004;-80
2021/07/19 05:17:12;;;;;;;10.55;4.32;;;;;;;19.78;51.99;101599.16;6181956;23;20037;-80
2021/07/19 05:19:39;;;;;;;15.60;5.47;;;;;;;19.75;51.23;101592.16;6182091;23;20350;-80
2021/07/19 05:22:14;;;;;;;13.55;4.68;;;;;;;19.50;51.89;101594.06;6155026;23;20012;-80
2021/07/19 05:24:41;;;;;;;10.80;4.57;;;;;;;19.77;51.38;101590.09;6181363;23;20032;-80
2021/07/19 05:27:08;;;;;;;16.60;5.63;;;;;;;19.85;51.27;101603.72;6181447;23;20055;-79
2021/07/19 05:29:34;;;;;;;13.27;3.97;;;;;;;19.71;51.09;101596.25;6181751;23;20338;-80
2021/07/19 05:32:02;;;;;;;16.27;5.13;;;;;;;19.52;51.47;101592.00;6181572;23;20005;-80
2021/07/19 05:34:27;;;;;;;12.68;4.10;;;;;;;19.44;51.92;101589.31;6181584;23;20009;-80
2021/07/19 05:36:52;;;;;;;7.65;3.40;;;;;;;19.48;52.00;101602.41;6156602;23;20111;-80
2021/07/19 05:39:18;;;;;;;10.75;4.15;;;;;;;19.58;51.91;101585.84;6183327;23;20009;-80
2021/07/19 05:41:43;;;;;;;8.82;3.67;;;;;;;19.66;51.85;101593.22;6182894;23;20075;-80
2021/07/19 05:44:10;;;;;;;13.40;4.80;;;;;;;19.85;51.51;101597.41;6181143;23;20054;-80
2021/07/19 05:46:36;;;;;;;8.27;3.55;;;;;;;20.03;51.12;101595.31;6175319;23;20005;-80
2021/07/19 05:49:03;;;;;;;11.55;3.75;;;;;;;20.14;51.01;101586.72;6178318;23;20504;-80
2021/07/19 05:51:32;;;;;;;10.23;4.18;;;;;;;20.09;51.26;101588.28;6179026;23;20039;-81
2021/07/19 05:54:00;;;;;;;10.50;4.18;;;;;;;19.81;51.37;101596.06;6152586;23;20017;-80
2021/07/19 05:56:30;;;;;;;12.00;4.32;;;;;;;19.97;51.29;101593.28;6179357;23;20011;-80
2021/07/19 05:58:56;;;;;;;13.13;3.97;;;;;;;20.03;51.25;101599.91;6153666;23;20012;-80
2021/07/19 06:01:22;;;;;;;9.38;3.80;;;;;;;20.19;50.70;101597.94;6152512;23;20092;-80
2021/07/19 06:03:48;;;;;;;10.68;3.70;;;;;;;20.08;50.89;101592.00;6179620;23;20036;-81
2021/07/19 06:06:14;;;;;;;15.02;3.85;;;;;;;19.93;50.03;101597.41;6179025;23;20024;-80
2021/07/19 06:08:40;;;;;;;12.48;3.75;;;;;;;20.17;49.82;101600.03;6179372;23;20084;-80
2021/07/19 06:11:06;;;;;;;11.48;4.43;;;;;;;20.39;48.90;101595.63;6179393;23;20342;-80
2021/07/19 06:13:34;;;;;;;10.63;3.42;;;;;;;20.37;48.79;101592.22;6155230;23;20084;-80
2021/07/19 06:16:04;;;;;;;11.15;3.38;;;;;;;20.52;49.14;101603.28;6179320;23;20084;-81
2021/07/19 06:18:29;;;;;;;8.13;3.00;;;;;;;20.53;48.65;101607.69;6154990;23;20013;-81
2021/07/19 06:20:56;;;;;;;13.45;3.08;;;;;;;20.56;48.55;101607.34;6179665;23;20080;-80
2021/07/19 06:23:22;;;;;;;12.02;2.97;;;;;;;20.44;47.79;101608.75;6179098;23;20016;-80
2021/07/19 06:25:50;;;;;;;16.83;4.07;;;;;;;20.56;47.02;101621.00;6179386;23;20004;-80
2021/07/19 06:28:16;;;;;;;9.70;3.05;;;;;;;20.39;47.19;101617.50;6180766;23;20104;-80
2021/07/19 06:30:41;;;;;;;8.68;3.20;;;;;;;20.50;47.22;101613.50;6180398;23;20084;-80
2021/07/19 06:33:06;;;;;;;9.90;3.50;;;;;;;20.61;47.04;101613.13;6179293;23;20697;-80
2021/07/19 06:35:32;;;;;;;8.32;3.42;;;;;;;20.44;47.18;101619.66;6179337;23;20771;-80
2021/07/19 06:37:57;;;;;;;11.65;2.90;;;;;;;20.36;47.47;101612.38;6179509;23;20019;-81
2021/07/19 06:40:23;;;;;;;10.23;3.33;;;;;;;20.34;46.36;101613.59;6179009;23;20408;-80
2021/07/19 06:42:48;;;;;;;9.90;3.30;;;;;;;20.60;46.27;101616.91;6176798;23;20009;-80
2021/07/19 06:45:14;;;;;;;10.40;2.95;;;;;;;20.54;45.06;101616.75;6180407;23;20005;-80
2021/07/19 06:47:41;;;;;;;13.00;3.90;;;;;;;20.59;45.64;101612.44;6179901;23;20504;-81
2021/07/19 06:50:09;;;;;;;12.30;3.00;;;;;;;20.19;45.67;101617.06;6179824;23;20005;-80
2021/07/19 06:52:34;;;;;;;12.25;3.33;;;;;;;20.50;45.54;101612.66;6179119;23;20005;-80
2021/07/19 06:55:00;;;;;;;12.00;3.78;;;;;;;20.51;45.22;101620.69;6179592;23;20012;-80
2021/07/19 06:57:25;;;;;;;9.45;3.00;;;;;;;20.33;45.25;101618.22;6180289;23;20011;-80
2021/07/19 06:59:51;;;;;;;12.27;3.40;;;;;;;20.71;45.10;101617.50;6154033;23;20016;-80
2021/07/19 07:02:16;;;;;;;12.60;3.60;;;;;;;20.62;45.64;101620.28;6178993;23;20047;-80
2021/07/19 07:04:42;;;;;;;11.45;2.65;;;;;;;20.95;44.53;101611.84;6152770;23;20734;-80
2021/07/19 07:07:08;;;;;;;14.20;2.97;;;;;;;21.03;44.62;101621.91;6152431;23;20485;-81
2021/07/19 07:09:34;;;;;;;7.97;2.63;;;;;;;20.92;43.42;101612.22;6152809;23;20005;-81
2021/07/19 07:11:59;;;;;;;8.77;3.17;;;;;;;20.76;43.74;101629.59;6179903;23;20005;-80
2021/07/19 07:14:25;;;;;;;11.60;2.95;;;;;;;20.86;43.76;101621.16;6179993;23;20086;-80
2021/07/19 07:16:50;;;;;;;10.27;2.42;;;;;;;20.88;43.33;101613.63;6152740;23;20004;-81
2021/07/19 07:19:16;;;;;;;12.65;2.75;;;;;;;20.58;43.97;101615.38;6178755;23;20088;-80
2021/07/19 07:21:42;;;;;;;12.80;3.60;;;;;;;20.79;43.75;101622.94;6178791;23;20712;-80
2021/07/19 07:24:07;;;;;;;7.53;2.25;;;;;;;20.55;44.13;101626.66;6178923;23;20008;-80
2021/07/19 07:26:32;;;;;;;7.97;2.58;;;;;;;20.60;44.08;101626.94;6179163;23;20105;-80
2021/07/19 07:28:58;;;;;;;6.13;2.38;;;;;;;20.73;43.74;101619.03;6179237;23;20009;-80
2021/07/19 07:31:27;;;;;;;7.97;2.20;;;;;;;20.68;43.77;101621.44;6152587;23;20008;-80
2021/07/19 07:33:55;;;;;;;8.65;2.70;;;;;;;20.60;43.52;101626.94;6178571;23;20005;-80
2021/07/19 07:36:22;;;;;;;7.13;2.58;;;;;;;20.72;44.12;101627.41;6151244;23;20020;-80
2021/07/19 07:38:48;;;;;;;8.23;2.80;;;;;;;21.01;43.27;101630.28;6178170;23;20079;-80
2021/07/19 07:41:14;;;;;;;8.30;2.40;;;;;;;20.80;42.67;101632.81;6178554;23;20736;-80
2021/07/19 07:43:39;;;;;;;10.23;2.58;;;;;;;21.00;43.08;101628.59;6181539;23;20016;-80
2021/07/19 07:46:05;;;;;;;9.10;3.08;;;;;;;21.02;42.09;101621.03;6182361;23;20354;-81
2021/07/19 07:48:32;;;;;;;7.70;2.80;;;;;;;21.14;41.62;101615.13;6183097;23;20370;-80
2021/07/19 07:50:58;;;;;;;6.28;1.90;;;;;;;21.35;41.25;101628.97;6181713;23;20009;-81
2021/07/19 07:53:23;;;;;;;9.98;1.95;;;;;;;21.35;40.35;101618.00;6181988;23;20721;-80
2021/07/19 07:55:48;;;;;;;7.55;2.28;;;;;;;21.55;40.45;101624.69;6182269;23;20016;-80
2021/07/19 07:58:14;;;;;;;4.10;1.95;;;;;;;21.49;39.92;101614.50;6150843;23;20382;-79
2021/07/19 08:00:39;;;;;;;5.43;1.90;;;;;;;21.69;40.19;101616.69;6178257;23;20009;-80
2021/07/19 08:03:05;;;;;;;7.22;2.10;;;;;;;21.54;39.88;101609.28;6179054;23;20009;-80
2021/07/19 08:05:30;;;;;;;5.15;1.67;;;;;;;21.75;39.61;101602.25;6151730;23;20021;-80
2021/07/19 08:07:55;;;;;;;6.93;2.67;;;;;;;21.64;40.29;101605.44;6151141;23;20036;-80
2021/07/19 08:10:21;;;;;;;8.30;1.80;;;;;;;21.86;39.45;101601.78;6151385;23;20449;-80
2021/07/19 08:12:47;;;;;;;7.88;2.10;;;;;;;21.73;39.87;101598.84;6151423;23;20016;-81
2021/07/19 08:15:15;;;;;;;7.93;1.85;;;;;;;21.85;39.25;101594.59;6177940;23;20429;-80
2021/07/19 08:17:41;;;;;;;7.07;2.13;;;;;;;21.92;39.59;101595.53;6179743;23;20076;-81
2021/07/19 08:20:07;;;;;;;7.05;1.90;;;;;;;22.01;39.41;101602.63;6152850;23;20040;-81
2021/07/19 08:22:32;;;;;;;6.30;2.17;;;;;;;22.00;38.63;101598.16;6178506;23;20055;-81
2021/07/19 08:24:58;;;;;;;9.32;2.40;;;;;;;22.24;38.78;101593.44;6177487;23;20005;-80
2021/07/19 08:27:24;;;;;;;8.50;2.10;;;;;;;22.16;38.94;101593.50;6151528;23;20005;-81
2021/07/19 08:29:50;;;;;;;4.45;2.15;;;;;;;22.06;38.90;101598.44;6151491;23;20008;-81
2021/07/19 08:32:16;;;;;;;12.00;2.50;;;;;;;22.41;39.28;101599.56;6152128;23;20333;-81
2021/07/19 08:34:45;;;;;;;4.55;1.90;;;;;;;22.45;38.92;101595.38;6180040;23;20009;-80
2021/07/19 08:37:13;;;;;;;11.15;2.20;;;;;;;22.51;39.40;101607.47;6179266;23;20013;-81
2021/07/19 08:39:43;;;;;;;7.40;2.33;;;;;;;22.29;39.27;101609.34;6150798;23;20096;-81
2021/07/19 08:42:15;;;;;;;10.45;2.97;;;;;;;22.16;40.01;101604.47;6178244;23;20017;-81
2021/07/19 08:44:41;;;;;;;6.63;2.33;;;;;;;22.08;40.15;101610.06;6151184;23;20055;-81
2021/07/19 08:47:11;;;;;;;9.70;2.50;;;;;;;22.14;40.52;101612.91;6178258;23;20008;-81
2021/07/19 08:49:38;;;;;;;10.45;1.65;;;;;;;22.24;40.87;101609.91;6176982;23;20676;-81
2021/07/19 08:52:05;;;;;;;6.65;2.35;;;;;;;22.06;40.02;101606.66;6177517;23;20019;-80
2021/07/19 08:54:36;;;;;;;11.57;2.28;;;;;;;22.23;40.55;101614.53;6178283;23;20579;-81
2021/07/19 08:57:03;;;;;;;9.70;2.83;;;;;;;21.75;41.27;101604.97;6178168;23;20012;-81
2021/07/19 08:59:29;;;;;;;7.22;2.03;;;;;;;21.70;40.74;101599.22;6178185;23;20001;-80
2021/07/19 09:01:58;;;;;;;9.55;2.17;;;;;;;21.87;41.27;101608.09;6177879;23;20055;-81
2021/07/19 09:04:24;;;;;;;6.30;2.45;;;;;;;21.50;41.09;101602.50;6177612;23;20009;-80
2021/07/19 09:06:49;;;;;;;11.50;1.98;;;;;;;21.71;41.25;101599.03;6177307;23;20096;-80
2021/07/19 09:09:25;;;;;;;9.80;2.42;;;;;;;21.98;41.16;101600.25;6177284;23;20033;-80
2021/07/19 09:11:51;;;;;;;8.18;2.30;;;;;;;21.82;40.49;101594.97;6179169;23;20072;-80
2021/07/19 09:14:16;;;;;;;8.15;2.33;;;;;;;21.90;40.86;101600.34;6180059;23;20013;-80
2021/07/19 09:16:44;;;;;;;4.85;2.08;;;;;;;22.21;39.72;101608.38;6154180;23;20027;-81
2021/07/19 09:19:12;;;;;;;8.40;2.35;;;;;;;22.54;38.77;101598.88;6179865;23;20009;-81
2021/07/19 09:21:39;;;;;;;7.35;1.65;;;;;;;22.35;38.28;101594.88;6179527;23;20015;-80
2021/07/19 09:24:13;;;;;;;7.55;2.25;;;;;;;22.56;38.13;101591.28;6179502;23;20005;-80
2021/07/19 09:26:40;;;;;;;5.70;2.00;;;;;;;22.43;37.64;101589.25;6178985;23;20001;-81
2021/07/19 09:29:08;;;;;;;6.22;1.75;;;;;;;22.36;38.14;101594.66;6153436;23;20326;-81
2021/07/19 09:31:37;;;;;;;8.00;1.83;;;;;;;22.14;38.28;101592.88;6154229;23;20096;-81
2021/07/19 09:34:10;;;;;;;7.55;2.03;;;;;;;21.72;38.49;101583.44;6180132;23;20577;-81
2021/07/19 09:36:35;;;;;;;7.05;2.03;;;;;;;22.04;38.43;101590.44;6179466;23;20760;-80
2021/07/19 09:39:08;;;;;;;5.47;1.63;;;;;;;22.38;38.00;101589.00;6179218;23;20012;-81
2021/07/19 09:41:35;;;;;;;6.75;1.75;;;;;;;22.45;38.16;101582.53;6180128;23;20051;-81
2021/07/19 09:44:06;;;;;;;4.32;1.73;;;;;;;22.69;37.13;101585.97;6154079;23;20346;-81
2021/07/19 09:46:35;;;;;;;4.32;1.55;;;;;;;22.94;36.60;101583.69;6179715;23;20001;-80
2021/07/19 09:49:01;;;;;;;6.20;1.73;;;;;;;22.64;37.26;101594.75;6151825;23;20005;-80
2021/07/19 09:51:32;;;;;;;6.97;1.80;;;;;;;22.41;37.85;101583.97;6179043;23;20093;-80
2021/07/19 09:54:08;;;;;;;8.13;2.25;;;;;;;22.23;38.83;101587.13;6179184;23;20009;-80
2021/07/19 09:56:33;;;;;;;3.15;1.92;;;;;;;22.23;39.54;101583.53;6152347;23;20013;-81
2021/07/19 09:59:13;;;;;;;7.03;2.17;;;;;;;22.42;39.44;101582.91;6179454;23;20027;-81
2021/07/19 10:01:43;;;;;;;10.55;2.15;;;;;;;22.54;40.03;101585.16;6180208;23;20011;-81
2021/07/19 10:04:10;;;;;;;4.40;2.13;;;;;;;22.72;39.73;101580.09;6179177;23;20009;-81
2021/07/19 10:06:37;;;;;;;7.32;2.08;;;;;;;22.77;39.93;101580.31;6178855;23;20699;-81
2021/07/19 10:09:06;;;;;;;9.30;2.33;;;;;;;22.88;39.40;101582.56;6152259;23;20539;-81
2021/07/19 10:11:35;;;;;;;4.90;1.80;;;;;;;23.07;39.74;101580.22;6179116;23;20009;-81
2021/07/19 10:14:01;;;;;;;5.43;1.98;;;;;;;23.13;40.08;101580.28;6153198;23;20031;-80
2021/07/19 10:16:30;;;;;;;6.82;2.10;;;;;;;23.11;39.12;101585.13;6180234;23;20456;-81
2021/07/19 10:18:57;;;;;;;8.43;2.40;;;;;;;23.52;39.00;101575.28;6178941;23;20444;-81
2021/07/19 10:21:28;;;;;;;6.97;1.85;;;;;;;23.47;38.80;101570.38;6178311;23;20056;-81
2021/07/19 10:23:58;;;;;;;10.10;2.33;;;;;;;23.48;38.56;101569.38;6178675;23;20024;-81
2021/07/19 10:26:25;;;;;;;8.98;2.08;;;;;;;23.53;38.48;101568.75;6178706;23;20009;-80
2021/07/19 10:28:50;;;;;;;7.53;2.28;;;;;;;23.45;38.32;101567.03;6178849;23;20008;-81
2021/07/19 10:31:17;;;;;;;7.45;2.42;;;;;;;23.95;39.23;101583.41;6179991;23;20020;-81
2021/07/19 10:33:42;;;;;;;4.50;2.40;;;;;;;24.20;37.18;101568.06;6178962;23;20104;-81
2021/07/19 10:36:11;;;;;;;5.32;2.40;;;;;;;24.19;37.58;101566.38;6178480;23;20438;-80
2021/07/19 10:38:40;;;;;;;5.05;2.33;;;;;;;23.88;37.79;101561.38;6151346;23;20009;-81
2021/07/19 10:41:06;;;;;;;7.55;2.35;;;;;;;23.95;37.58;101567.75;6151614;23;20008;-81
2021/07/19 10:43:32;;;;;;;6.15;2.20;;;;;;;24.16;37.64;101565.94;6178995;23;20005;-81
2021/07/19 10:46:08;;;;;;;11.30;2.22;;;;;;;23.89;38.35;101565.81;6180264;23;20005;-80
2021/07/19 10:48:34;;;;;;;5.75;1.92;;;;;;;23.75;37.76;101556.69;6179678;23;20005;-80
2021/07/19 10:51:23;;;;;;;11.30;2.47;;;;;;;24.21;38.31;101563.41;6178318;23;20024;-81
2021/07/19 10:53:48;;;;;;;14.02;2.85;;;;;;;23.95;38.85;101572.41;6151414;23;20043;-80
2021/07/19 10:56:15;;;;;;;7.65;2.47;;;;;;;23.83;38.62;101566.63;6151374;23;20012;-80
2021/07/19 10:58:49;;;;;;;3.63;2.00;;;;;;;23.95;39.04;101561.41;6178379;23;20088;-80
2021/07/19 11:01:23;;;;;;;6.55;2.63;;;;;;;24.28;39.69;101550.56;6179555;23;20337;-81
2021/07/19 11:03:49;;;;;;;5.47;2.58;;;;;;;24.49;39.03;101558.69;6177387;23;20323;-82
2021/07/19 11:06:18;;;;;;;8.95;2.60;;;;;;;24.73;38.07;101561.88;6151812;23;20017;-81
2021/07/19 11:08:50;;;;;;;13.52;2.97;;;;;;;24.52;37.99;101558.28;6178808;23;20008;-82
2021/07/19 11:11:26;;;;;;;10.02;3.08;;;;;;;24.55;37.96;101568.00;6179098;23;20076;-82
2021/07/19 11:13:57;;;;;;;5.70;2.25;;;;;;;24.72;36.62;101561.03;6178346;23;20453;-81
2021/07/19 11:16:23;;;;;;;7.03;3.40;;;;;;;24.70;37.02;101570.56;6179299;23;20333;-81
2021/07/19 11:18:56;;;;;;;9.10;2.40;;;;;;;24.62;36.67;101565.28;6181385;23;20072;-81
2021/07/19 11:21:24;;;;;;;8.63;2.90;;;;;;;24.42;37.72;101562.47;6152338;23;20758;-81